Tylertown, Mississippi
Current Conditions -  °F | °C
As of 12:53 PM on Sunday 21 Dec 2014 (Local Time) from KMCB Reporting Station
Clear Clear  
Wind Chill: 57°   Ceiling: Unl
Heat Index: 57°   Visibility: 10mi
Dew Point: 48°   Wind: 6mph
Humidity: 72%   Direction: 150°SSE
Pressure: 30.04"   Gusts: NA
Location:  31.12°N, 90.14°W
Report Text: KMCB 211853Z AUTO 15005KT 10SM CLR 14/09 A3004 RMK AO2 SLP172 T01390089
Loading
Personal Weather Stations






























Interactive Weather Map New forecast layout! Learn more

10-Day Weather Forecast

Advertisements
Track Severe Weather on mobile